sensor_id;sensor_type;location;lat;lon;timestamp;P1;durP1;ratioP1;P2;durP2;ratioP2
56321;SDS011;42227;6.376;-10.782;2023-04-19T00:00:20;69.13;;;47.20;;
56321;SDS011;42227;6.376;-10.782;2023-04-19T00:02:48;60.72;;;44.47;;
56321;SDS011;42227;6.376;-10.782;2023-04-19T00:05:17;70.63;;;46.00;;
56321;SDS011;42227;6.376;-10.782;2023-04-19T00:07:45;71.88;;;42.67;;
56321;SDS011;42227;6.376;-10.782;2023-04-19T00:10:14;68.93;;;44.40;;
56321;SDS011;42227;6.376;-10.782;2023-04-19T00:12:42;68.85;;;47.17;;
56321;SDS011;42227;6.376;-10.782;2023-04-19T00:15:10;70.07;;;44.25;;
56321;SDS011;42227;6.376;-10.782;2023-04-19T00:17:38;66.93;;;45.58;;
56321;SDS011;42227;6.376;-10.782;2023-04-19T00:20:08;56.22;;;41.47;;
56321;SDS011;42227;6.376;-10.782;2023-04-19T00:22:37;67.22;;;47.53;;
56321;SDS011;42227;6.376;-10.782;2023-04-19T00:25:06;64.72;;;45.97;;
56321;SDS011;42227;6.376;-10.782;2023-04-19T00:27:34;71.82;;;44.05;;
56321;SDS011;42227;6.376;-10.782;2023-04-19T00:30:03;78.85;;;47.65;;
56321;SDS011;42227;6.376;-10.782;2023-04-19T00:32:32;63.90;;;44.58;;
56321;SDS011;42227;6.376;-10.782;2023-04-19T00:35:00;66.30;;;44.03;;
56321;SDS011;42227;6.376;-10.782;2023-04-19T00:37:30;65.28;;;43.95;;
56321;SDS011;42227;6.376;-10.782;2023-04-19T00:39:59;77.28;;;50.88;;
56321;SDS011;42227;6.376;-10.782;2023-04-19T00:42:27;64.18;;;39.35;;
56321;SDS011;42227;6.376;-10.782;2023-04-19T00:44:55;47.75;;;34.55;;
56321;SDS011;42227;6.376;-10.782;2023-04-19T00:47:23;63.28;;;36.60;;
56321;SDS011;42227;6.376;-10.782;2023-04-19T00:49:52;57.25;;;37.60;;
56321;SDS011;42227;6.376;-10.782;2023-04-19T00:52:20;66.45;;;34.15;;
56321;SDS011;42227;6.376;-10.782;2023-04-19T00:54:49;45.85;;;30.48;;
56321;SDS011;42227;6.376;-10.782;2023-04-19T00:57:19;47.75;;;31.30;;
56321;SDS011;42227;6.376;-10.782;2023-04-19T00:59:49;48.28;;;27.73;;
56321;SDS011;42227;6.376;-10.782;2023-04-19T01:02:17;50.67;;;28.85;;
56321;SDS011;42227;6.376;-10.782;2023-04-19T01:04:48;44.97;;;26.10;;
56321;SDS011;42227;6.376;-10.782;2023-04-19T01:07:16;50.22;;;28.02;;
56321;SDS011;42227;6.376;-10.782;2023-04-19T01:09:46;49.95;;;28.58;;
56321;SDS011;42227;6.376;-10.782;2023-04-19T01:12:14;53.80;;;29.77;;
56321;SDS011;42227;6.376;-10.782;2023-04-19T01:14:42;53.65;;;30.20;;
56321;SDS011;42227;6.376;-10.782;2023-04-19T01:17:11;45.92;;;28.20;;
56321;SDS011;42227;6.376;-10.782;2023-04-19T01:19:40;51.22;;;28.13;;
56321;SDS011;42227;6.376;-10.782;2023-04-19T01:22:08;55.80;;;29.73;;
56321;SDS011;42227;6.376;-10.782;2023-04-19T01:24:36;49.72;;;32.22;;
56321;SDS011;42227;6.376;-10.782;2023-04-19T01:27:05;52.45;;;31.92;;
56321;SDS011;42227;6.376;-10.782;2023-04-19T01:29:34;55.88;;;34.30;;
56321;SDS011;42227;6.376;-10.782;2023-04-19T01:32:02;49.72;;;33.47;;
56321;SDS011;42227;6.376;-10.782;2023-04-19T01:34:31;44.15;;;31.05;;
56321;SDS011;42227;6.376;-10.782;2023-04-19T01:36:59;52.95;;;31.15;;
56321;SDS011;42227;6.376;-10.782;2023-04-19T01:39:27;58.38;;;32.53;;
56321;SDS011;42227;6.376;-10.782;2023-04-19T01:41:56;48.92;;;32.38;;
56321;SDS011;42227;6.376;-10.782;2023-04-19T01:44:24;54.78;;;33.90;;
56321;SDS011;42227;6.376;-10.782;2023-04-19T01:46:52;45.28;;;31.33;;
56321;SDS011;42227;6.376;-10.782;2023-04-19T01:49:20;60.13;;;36.33;;
56321;SDS011;42227;6.376;-10.782;2023-04-19T01:51:49;58.58;;;34.95;;
56321;SDS011;42227;6.376;-10.782;2023-04-19T01:54:17;56.88;;;29.67;;
56321;SDS011;42227;6.376;-10.782;2023-04-19T01:56:48;51.53;;;30.27;;
56321;SDS011;42227;6.376;-10.782;2023-04-19T01:59:16;44.40;;;27.02;;
56321;SDS011;42227;6.376;-10.782;2023-04-19T02:01:44;55.35;;;28.13;;
56321;SDS011;42227;6.376;-10.782;2023-04-19T02:04:13;47.90;;;28.85;;
56321;SDS011;42227;6.376;-10.782;2023-04-19T02:06:41;47.03;;;28.10;;
56321;SDS011;42227;6.376;-10.782;2023-04-19T02:09:10;49.67;;;27.67;;
56321;SDS011;42227;6.376;-10.782;2023-04-19T02:11:41;45.25;;;26.98;;
56321;SDS011;42227;6.376;-10.782;2023-04-19T02:14:09;58.95;;;27.73;;
56321;SDS011;42227;6.376;-10.782;2023-04-19T02:16:37;43.70;;;23.77;;
56321;SDS011;42227;6.376;-10.782;2023-04-19T02:19:06;48.45;;;24.27;;
56321;SDS011;42227;6.376;-10.782;2023-04-19T02:21:34;49.60;;;25.45;;
56321;SDS011;42227;6.376;-10.782;2023-04-19T02:24:02;43.70;;;24.38;;
56321;SDS011;42227;6.376;-10.782;2023-04-19T02:26:30;43.58;;;24.58;;
56321;SDS011;42227;6.376;-10.782;2023-04-19T02:28:59;38.05;;;23.75;;
56321;SDS011;42227;6.376;-10.782;2023-04-19T02:31:27;47.90;;;26.45;;
56321;SDS011;42227;6.376;-10.782;2023-04-19T02:33:55;48.25;;;23.33;;
56321;SDS011;42227;6.376;-10.782;2023-04-19T02:36:25;48.75;;;25.00;;
56321;SDS011;42227;6.376;-10.782;2023-04-19T02:38:53;49.97;;;24.67;;
56321;SDS011;42227;6.376;-10.782;2023-04-19T02:41:21;52.28;;;26.27;;
56321;SDS011;42227;6.376;-10.782;2023-04-19T02:43:50;40.88;;;22.80;;
56321;SDS011;42227;6.376;-10.782;2023-04-19T02:46:18;42.45;;;24.42;;
56321;SDS011;42227;6.376;-10.782;2023-04-19T02:48:46;51.85;;;24.20;;
56321;SDS011;42227;6.376;-10.782;2023-04-19T02:51:15;49.90;;;24.83;;
56321;SDS011;42227;6.376;-10.782;2023-04-19T02:53:44;48.65;;;27.13;;
56321;SDS011;42227;6.376;-10.782;2023-04-19T02:56:12;50.15;;;25.90;;
56321;SDS011;42227;6.376;-10.782;2023-04-19T02:58:40;36.72;;;24.02;;
56321;SDS011;42227;6.376;-10.782;2023-04-19T03:01:12;50.20;;;25.85;;
56321;SDS011;42227;6.376;-10.782;2023-04-19T03:03:41;40.72;;;24.50;;
56321;SDS011;42227;6.376;-10.782;2023-04-19T03:06:11;41.92;;;24.67;;
56321;SDS011;42227;6.376;-10.782;2023-04-19T03:08:39;52.13;;;28.35;;
56321;SDS011;42227;6.376;-10.782;2023-04-19T03:11:09;56.35;;;29.35;;
56321;SDS011;42227;6.376;-10.782;2023-04-19T03:13:38;54.22;;;28.48;;
56321;SDS011;42227;6.376;-10.782;2023-04-19T03:16:06;58.00;;;29.40;;
56321;SDS011;42227;6.376;-10.782;2023-04-19T03:18:36;45.17;;;31.20;;
56321;SDS011;42227;6.376;-10.782;2023-04-19T03:21:04;54.33;;;30.15;;
56321;SDS011;42227;6.376;-10.782;2023-04-19T03:23:40;57.15;;;31.40;;
56321;SDS011;42227;6.376;-10.782;2023-04-19T03:26:08;56.15;;;30.38;;
56321;SDS011;42227;6.376;-10.782;2023-04-19T03:28:43;45.13;;;28.77;;
56321;SDS011;42227;6.376;-10.782;2023-04-19T03:31:21;44.67;;;28.17;;
56321;SDS011;42227;6.376;-10.782;2023-04-19T03:33:52;42.47;;;24.42;;
56321;SDS011;42227;6.376;-10.782;2023-04-19T03:36:25;47.92;;;26.35;;
56321;SDS011;42227;6.376;-10.782;2023-04-19T03:38:54;44.85;;;25.67;;
56321;SDS011;42227;6.376;-10.782;2023-04-19T03:41:25;45.85;;;27.25;;
56321;SDS011;42227;6.376;-10.782;2023-04-19T03:44:26;46.35;;;24.98;;
56321;SDS011;42227;6.376;-10.782;2023-04-19T03:46:54;34.88;;;22.40;;
56321;SDS011;42227;6.376;-10.782;2023-04-19T03:49:26;42.53;;;21.27;;
56321;SDS011;42227;6.376;-10.782;2023-04-19T03:52:02;40.33;;;21.95;;
56321;SDS011;42227;6.376;-10.782;2023-04-19T03:54:32;32.40;;;20.25;;
56321;SDS011;42227;6.376;-10.782;2023-04-19T03:57:01;32.63;;;20.85;;
56321;SDS011;42227;6.376;-10.782;2023-04-19T03:59:31;36.33;;;20.33;;
56321;SDS011;42227;6.376;-10.782;2023-04-19T04:02:01;32.20;;;18.30;;
56321;SDS011;42227;6.376;-10.782;2023-04-19T04:04:30;38.45;;;21.95;;
56321;SDS011;42227;6.376;-10.782;2023-04-19T04:06:59;27.05;;;21.45;;
56321;SDS011;42227;6.376;-10.782;2023-04-19T04:09:27;47.40;;;21.35;;
56321;SDS011;42227;6.376;-10.782;2023-04-19T04:11:55;43.92;;;22.27;;
56321;SDS011;42227;6.376;-10.782;2023-04-19T04:14:24;35.75;;;21.15;;
56321;SDS011;42227;6.376;-10.782;2023-04-19T04:16:52;34.95;;;20.20;;
56321;SDS011;42227;6.376;-10.782;2023-04-19T04:19:20;37.55;;;18.60;;
56321;SDS011;42227;6.376;-10.782;2023-04-19T04:21:49;33.20;;;17.25;;
56321;SDS011;42227;6.376;-10.782;2023-04-19T04:24:17;34.95;;;19.42;;
56321;SDS011;42227;6.376;-10.782;2023-04-19T04:27:01;32.97;;;19.77;;
56321;SDS011;42227;6.376;-10.782;2023-04-19T04:29:32;34.30;;;17.13;;
56321;SDS011;42227;6.376;-10.782;2023-04-19T04:32:05;32.38;;;19.38;;
56321;SDS011;42227;6.376;-10.782;2023-04-19T04:34:38;35.03;;;18.27;;
56321;SDS011;42227;6.376;-10.782;2023-04-19T04:37:10;24.63;;;16.25;;
56321;SDS011;42227;6.376;-10.782;2023-04-19T04:39:39;29.45;;;18.27;;
56321;SDS011;42227;6.376;-10.782;2023-04-19T04:42:09;23.90;;;16.23;;
56321;SDS011;42227;6.376;-10.782;2023-04-19T04:44:37;25.00;;;15.18;;
56321;SDS011;42227;6.376;-10.782;2023-04-19T04:47:07;30.67;;;16.38;;
56321;SDS011;42227;6.376;-10.782;2023-04-19T04:49:41;29.45;;;16.80;;
56321;SDS011;42227;6.376;-10.782;2023-04-19T04:52:10;30.52;;;15.55;;
56321;SDS011;42227;6.376;-10.782;2023-04-19T04:54:48;31.80;;;17.98;;
56321;SDS011;42227;6.376;-10.782;2023-04-19T04:57:23;35.63;;;16.27;;
56321;SDS011;42227;6.376;-10.782;2023-04-19T04:59:52;30.83;;;17.23;;
56321;SDS011;42227;6.376;-10.782;2023-04-19T05:02:21;30.10;;;15.70;;
56321;SDS011;42227;6.376;-10.782;2023-04-19T05:04:50;30.60;;;16.17;;
56321;SDS011;42227;6.376;-10.782;2023-04-19T05:07:19;28.92;;;16.10;;
56321;SDS011;42227;6.376;-10.782;2023-04-19T05:09:47;40.47;;;16.48;;
56321;SDS011;42227;6.376;-10.782;2023-04-19T05:12:21;31.25;;;16.95;;
56321;SDS011;42227;6.376;-10.782;2023-04-19T05:14:49;34.67;;;17.40;;
56321;SDS011;42227;6.376;-10.782;2023-04-19T05:17:18;31.67;;;17.85;;
56321;SDS011;42227;6.376;-10.782;2023-04-19T05:19:46;31.33;;;16.50;;
56321;SDS011;42227;6.376;-10.782;2023-04-19T05:22:14;44.78;;;23.92;;
56321;SDS011;42227;6.376;-10.782;2023-04-19T05:24:43;32.72;;;21.00;;
56321;SDS011;42227;6.376;-10.782;2023-04-19T05:27:11;43.88;;;26.25;;
56321;SDS011;42227;6.376;-10.782;2023-04-19T05:29:41;47.70;;;25.95;;
56321;SDS011;42227;6.376;-10.782;2023-04-19T05:32:09;47.47;;;28.45;;
56321;SDS011;42227;6.376;-10.782;2023-04-19T05:34:43;46.53;;;25.73;;
56321;SDS011;42227;6.376;-10.782;2023-04-19T05:37:14;45.95;;;26.55;;
56321;SDS011;42227;6.376;-10.782;2023-04-19T05:39:42;47.72;;;25.67;;
56321;SDS011;42227;6.376;-10.782;2023-04-19T05:42:10;50.45;;;28.88;;
56321;SDS011;42227;6.376;-10.782;2023-04-19T05:44:39;39.88;;;27.35;;
56321;SDS011;42227;6.376;-10.782;2023-04-19T05:47:07;47.70;;;26.77;;
56321;SDS011;42227;6.376;-10.782;2023-04-19T05:50:04;44.30;;;25.73;;
56321;SDS011;42227;6.376;-10.782;2023-04-19T05:52:37;52.00;;;29.52;;
56321;SDS011;42227;6.376;-10.782;2023-04-19T05:55:06;52.40;;;32.25;;
56321;SDS011;42227;6.376;-10.782;2023-04-19T05:57:40;55.63;;;32.08;;
56321;SDS011;42227;6.376;-10.782;2023-04-19T06:00:08;57.67;;;34.03;;
56321;SDS011;42227;6.376;-10.782;2023-04-19T06:02:46;52.13;;;30.10;;
56321;SDS011;42227;6.376;-10.782;2023-04-19T06:05:15;46.80;;;31.48;;
56321;SDS011;42227;6.376;-10.782;2023-04-19T06:07:43;48.42;;;28.60;;
56321;SDS011;42227;6.376;-10.782;2023-04-19T06:10:21;62.33;;;30.05;;
56321;SDS011;42227;6.376;-10.782;2023-04-19T06:12:50;48.05;;;29.50;;
56321;SDS011;42227;6.376;-10.782;2023-04-19T06:15:18;48.03;;;28.80;;
56321;SDS011;42227;6.376;-10.782;2023-04-19T06:17:47;58.75;;;31.85;;
56321;SDS011;42227;6.376;-10.782;2023-04-19T06:20:15;46.28;;;28.67;;
56321;SDS011;42227;6.376;-10.782;2023-04-19T06:22:44;45.92;;;26.08;;
56321;SDS011;42227;6.376;-10.782;2023-04-19T06:25:12;46.25;;;26.55;;
56321;SDS011;42227;6.376;-10.782;2023-04-19T06:27:41;50.63;;;28.52;;
56321;SDS011;42227;6.376;-10.782;2023-04-19T06:30:09;53.33;;;29.35;;
56321;SDS011;42227;6.376;-10.782;2023-04-19T06:32:37;54.03;;;28.95;;
56321;SDS011;42227;6.376;-10.782;2023-04-19T06:35:06;43.92;;;28.20;;
56321;SDS011;42227;6.376;-10.782;2023-04-19T06:37:34;37.65;;;27.38;;
56321;SDS011;42227;6.376;-10.782;2023-04-19T06:40:02;48.25;;;29.83;;
56321;SDS011;42227;6.376;-10.782;2023-04-19T06:42:31;49.72;;;28.48;;
56321;SDS011;42227;6.376;-10.782;2023-04-19T06:45:00;50.05;;;26.27;;
56321;SDS011;42227;6.376;-10.782;2023-04-19T06:47:28;49.40;;;29.52;;
56321;SDS011;42227;6.376;-10.782;2023-04-19T06:49:59;59.55;;;30.63;;
56321;SDS011;42227;6.376;-10.782;2023-04-19T06:52:27;37.42;;;26.23;;
56321;SDS011;42227;6.376;-10.782;2023-04-19T06:54:56;40.30;;;27.45;;
56321;SDS011;42227;6.376;-10.782;2023-04-19T06:57:24;48.88;;;25.92;;
56321;SDS011;42227;6.376;-10.782;2023-04-19T06:59:53;44.22;;;27.35;;
56321;SDS011;42227;6.376;-10.782;2023-04-19T07:02:21;48.15;;;25.85;;
56321;SDS011;42227;6.376;-10.782;2023-04-19T07:04:50;54.80;;;27.27;;
56321;SDS011;42227;6.376;-10.782;2023-04-19T07:07:18;41.10;;;28.73;;
56321;SDS011;42227;6.376;-10.782;2023-04-19T07:09:46;57.40;;;26.92;;
56321;SDS011;42227;6.376;-10.782;2023-04-19T07:12:15;38.08;;;26.00;;
56321;SDS011;42227;6.376;-10.782;2023-04-19T07:14:43;47.03;;;27.33;;
56321;SDS011;42227;6.376;-10.782;2023-04-19T07:17:11;40.35;;;23.55;;
56321;SDS011;42227;6.376;-10.782;2023-04-19T07:19:40;40.55;;;26.33;;
56321;SDS011;42227;6.376;-10.782;2023-04-19T07:22:08;40.28;;;25.05;;
56321;SDS011;42227;6.376;-10.782;2023-04-19T07:24:37;50.80;;;27.38;;
56321;SDS011;42227;6.376;-10.782;2023-04-19T07:27:05;40.08;;;26.98;;
56321;SDS011;42227;6.376;-10.782;2023-04-19T07:29:34;47.53;;;27.05;;
56321;SDS011;42227;6.376;-10.782;2023-04-19T07:32:03;46.45;;;32.55;;
56321;SDS011;42227;6.376;-10.782;2023-04-19T07:34:32;46.65;;;29.38;;
56321;SDS011;42227;6.376;-10.782;2023-04-19T07:37:00;38.35;;;27.08;;
56321;SDS011;42227;6.376;-10.782;2023-04-19T07:39:28;38.42;;;28.48;;
56321;SDS011;42227;6.376;-10.782;2023-04-19T07:41:57;37.70;;;24.75;;
56321;SDS011;42227;6.376;-10.782;2023-04-19T07:44:25;48.58;;;27.52;;
56321;SDS011;42227;6.376;-10.782;2023-04-19T07:46:54;37.60;;;26.02;;
56321;SDS011;42227;6.376;-10.782;2023-04-19T07:49:22;53.55;;;23.52;;
56321;SDS011;42227;6.376;-10.782;2023-04-19T07:51:50;38.33;;;23.20;;
56321;SDS011;42227;6.376;-10.782;2023-04-19T07:54:19;51.30;;;25.40;;
56321;SDS011;42227;6.376;-10.782;2023-04-19T07:56:47;38.05;;;24.88;;
56321;SDS011;42227;6.376;-10.782;2023-04-19T07:59:15;45.05;;;26.98;;
56321;SDS011;42227;6.376;-10.782;2023-04-19T08:01:44;39.38;;;25.40;;
56321;SDS011;42227;6.376;-10.782;2023-04-19T08:04:12;42.58;;;23.55;;
56321;SDS011;42227;6.376;-10.782;2023-04-19T08:06:41;52.58;;;24.48;;
56321;SDS011;42227;6.376;-10.782;2023-04-19T08:09:09;38.40;;;23.13;;
56321;SDS011;42227;6.376;-10.782;2023-04-19T08:11:38;34.28;;;21.17;;
56321;SDS011;42227;6.376;-10.782;2023-04-19T08:14:06;38.15;;;24.55;;
56321;SDS011;42227;6.376;-10.782;2023-04-19T08:16:54;35.05;;;23.42;;
56321;SDS011;42227;6.376;-10.782;2023-04-19T08:19:42;48.35;;;25.75;;
56321;SDS011;42227;6.376;-10.782;2023-04-19T08:22:10;36.35;;;23.85;;
56321;SDS011;42227;6.376;-10.782;2023-04-19T08:24:39;44.08;;;27.70;;
56321;SDS011;42227;6.376;-10.782;2023-04-19T08:27:08;54.97;;;31.30;;
56321;SDS011;42227;6.376;-10.782;2023-04-19T08:29:36;49.85;;;29.08;;
56321;SDS011;42227;6.376;-10.782;2023-04-19T08:32:05;51.97;;;24.40;;
56321;SDS011;42227;6.376;-10.782;2023-04-19T08:34:34;59.25;;;28.63;;
56321;SDS011;42227;6.376;-10.782;2023-04-19T08:37:03;34.92;;;23.75;;
56321;SDS011;42227;6.376;-10.782;2023-04-19T08:39:31;53.88;;;28.73;;
56321;SDS011;42227;6.376;-10.782;2023-04-19T08:42:04;35.95;;;23.83;;
56321;SDS011;42227;6.376;-10.782;2023-04-19T08:44:50;39.03;;;18.55;;
56321;SDS011;42227;6.376;-10.782;2023-04-19T08:47:23;34.33;;;19.05;;
56321;SDS011;42227;6.376;-10.782;2023-04-19T08:50:00;42.42;;;18.95;;
56321;SDS011;42227;6.376;-10.782;2023-04-19T08:52:50;31.17;;;18.65;;
56321;SDS011;42227;6.376;-10.782;2023-04-19T08:55:28;32.95;;;19.00;;
56321;SDS011;42227;6.376;-10.782;2023-04-19T08:57:57;34.67;;;25.00;;
56321;SDS011;42227;6.376;-10.782;2023-04-19T09:00:26;51.25;;;25.55;;
56321;SDS011;42227;6.376;-10.782;2023-04-19T09:02:55;28.83;;;17.50;;
56321;SDS011;42227;6.376;-10.782;2023-04-19T09:05:23;35.75;;;16.20;;
56321;SDS011;42227;6.376;-10.782;2023-04-19T09:07:52;34.38;;;16.95;;
56321;SDS011;42227;6.376;-10.782;2023-04-19T09:10:20;25.35;;;14.38;;
56321;SDS011;42227;6.376;-10.782;2023-04-19T09:12:58;29.52;;;16.02;;
56321;SDS011;42227;6.376;-10.782;2023-04-19T09:18:06;26.33;;;14.48;;
56321;SDS011;42227;6.376;-10.782;2023-04-19T09:20:38;23.17;;;14.02;;
56321;SDS011;42227;6.376;-10.782;2023-04-19T09:23:12;25.98;;;13.52;;
56321;SDS011;42227;6.376;-10.782;2023-04-19T09:25:58;28.42;;;13.88;;
56321;SDS011;42227;6.376;-10.782;2023-04-19T09:28:31;18.83;;;12.82;;
56321;SDS011;42227;6.376;-10.782;2023-04-19T09:31:09;22.75;;;14.38;;
56321;SDS011;42227;6.376;-10.782;2023-04-19T09:34:19;24.25;;;14.00;;
56321;SDS011;42227;6.376;-10.782;2023-04-19T09:36:46;20.98;;;12.43;;
56321;SDS011;42227;6.376;-10.782;2023-04-19T09:39:32;20.75;;;12.65;;
56321;SDS011;42227;6.376;-10.782;2023-04-19T09:42:00;24.65;;;11.57;;
56321;SDS011;42227;6.376;-10.782;2023-04-19T09:44:28;23.85;;;11.10;;
56321;SDS011;42227;6.376;-10.782;2023-04-19T09:47:21;23.42;;;11.23;;
56321;SDS011;42227;6.376;-10.782;2023-04-19T09:50:11;23.55;;;14.15;;
56321;SDS011;42227;6.376;-10.782;2023-04-19T09:52:42;18.67;;;11.98;;
56321;SDS011;42227;6.376;-10.782;2023-04-19T09:55:12;13.77;;;9.82;;
56321;SDS011;42227;6.376;-10.782;2023-04-19T10:00:22;21.75;;;10.13;;
56321;SDS011;42227;6.376;-10.782;2023-04-19T10:02:51;23.92;;;11.13;;
56321;SDS011;42227;6.376;-10.782;2023-04-19T10:05:23;23.65;;;10.25;;
56321;SDS011;42227;6.376;-10.782;2023-04-19T10:07:52;34.85;;;11.82;;
56321;SDS011;42227;6.376;-10.782;2023-04-19T10:10:25;27.98;;;10.77;;
56321;SDS011;42227;6.376;-10.782;2023-04-19T10:12:59;20.48;;;11.18;;
56321;SDS011;42227;6.376;-10.782;2023-04-19T10:15:46;23.30;;;11.18;;
56321;SDS011;42227;6.376;-10.782;2023-04-19T10:18:25;13.50;;;7.93;;
56321;SDS011;42227;6.376;-10.782;2023-04-19T10:21:00;19.08;;;7.95;;
56321;SDS011;42227;6.376;-10.782;2023-04-19T10:23:33;23.17;;;9.40;;
56321;SDS011;42227;6.376;-10.782;2023-04-19T10:26:04;14.07;;;9.32;;
56321;SDS011;42227;6.376;-10.782;2023-04-19T10:28:32;18.70;;;9.48;;
56321;SDS011;42227;6.376;-10.782;2023-04-19T10:31:03;21.67;;;9.18;;
56321;SDS011;42227;6.376;-10.782;2023-04-19T10:33:35;20.10;;;8.80;;
56321;SDS011;42227;6.376;-10.782;2023-04-19T10:36:07;27.13;;;8.80;;
56321;SDS011;42227;6.376;-10.782;2023-04-19T10:41:10;18.55;;;8.32;;
56321;SDS011;42227;6.376;-10.782;2023-04-19T10:43:47;22.80;;;10.32;;
56321;SDS011;42227;6.376;-10.782;2023-04-19T10:51:31;23.55;;;12.93;;
56321;SDS011;42227;6.376;-10.782;2023-04-19T10:54:01;24.63;;;14.43;;
56321;SDS011;42227;6.376;-10.782;2023-04-19T11:01:36;24.60;;;11.48;;
56321;SDS011;42227;6.376;-10.782;2023-04-19T11:04:06;31.27;;;13.80;;
56321;SDS011;42227;6.376;-10.782;2023-04-19T11:09:22;21.65;;;10.13;;
56321;SDS011;42227;6.376;-10.782;2023-04-19T11:11:59;19.70;;;10.63;;
56321;SDS011;42227;6.376;-10.782;2023-04-19T11:14:30;24.80;;;11.88;;
56321;SDS011;42227;6.376;-10.782;2023-04-19T11:17:02;24.63;;;11.20;;
56321;SDS011;42227;6.376;-10.782;2023-04-19T11:19:41;24.52;;;11.90;;
56321;SDS011;42227;6.376;-10.782;2023-04-19T11:22:30;29.88;;;12.68;;
56321;SDS011;42227;6.376;-10.782;2023-04-19T11:27:36;28.02;;;9.70;;
56321;SDS011;42227;6.376;-10.782;2023-04-19T11:30:06;40.05;;;15.35;;
56321;SDS011;42227;6.376;-10.782;2023-04-19T11:32:36;28.35;;;16.95;;
56321;SDS011;42227;6.376;-10.782;2023-04-19T11:35:10;24.38;;;12.60;;
56321;SDS011;42227;6.376;-10.782;2023-04-19T11:37:39;27.50;;;11.23;;
56321;SDS011;42227;6.376;-10.782;2023-04-19T11:40:07;28.40;;;13.23;;
56321;SDS011;42227;6.376;-10.782;2023-04-19T11:42:36;27.85;;;13.02;;
56321;SDS011;42227;6.376;-10.782;2023-04-19T11:45:05;30.35;;;13.80;;
56321;SDS011;42227;6.376;-10.782;2023-04-19T11:47:52;40.47;;;15.02;;
56321;SDS011;42227;6.376;-10.782;2023-04-19T11:52:58;52.55;;;18.75;;
56321;SDS011;42227;6.376;-10.782;2023-04-19T11:55:26;31.90;;;14.88;;
56321;SDS011;42227;6.376;-10.782;2023-04-19T11:57:59;26.13;;;13.48;;
56321;SDS011;42227;6.376;-10.782;2023-04-19T12:00:28;37.90;;;15.15;;
56321;SDS011;42227;6.376;-10.782;2023-04-19T12:02:57;23.02;;;13.13;;
56321;SDS011;42227;6.376;-10.782;2023-04-19T12:05:26;30.20;;;13.15;;
56321;SDS011;42227;6.376;-10.782;2023-04-19T12:08:05;25.00;;;11.65;;
56321;SDS011;42227;6.376;-10.782;2023-04-19T12:10:33;15.43;;;8.85;;
56321;SDS011;42227;6.376;-10.782;2023-04-19T12:13:17;23.30;;;8.88;;
56321;SDS011;42227;6.376;-10.782;2023-04-19T12:15:45;29.17;;;9.82;;
56321;SDS011;42227;6.376;-10.782;2023-04-19T12:18:14;21.27;;;9.23;;
56321;SDS011;42227;6.376;-10.782;2023-04-19T12:20:43;25.10;;;13.32;;
56321;SDS011;42227;6.376;-10.782;2023-04-19T12:23:13;33.72;;;14.70;;
56321;SDS011;42227;6.376;-10.782;2023-04-19T12:25:43;27.05;;;14.85;;
56321;SDS011;42227;6.376;-10.782;2023-04-19T12:28:13;17.83;;;9.30;;
56321;SDS011;42227;6.376;-10.782;2023-04-19T12:32:49;21.90;;;9.85;;
56321;SDS011;42227;6.376;-10.782;2023-04-19T12:35:18;30.35;;;10.70;;
56321;SDS011;42227;6.376;-10.782;2023-04-19T12:37:46;21.40;;;8.45;;
56321;SDS011;42227;6.376;-10.782;2023-04-19T12:40:14;18.25;;;8.10;;
56321;SDS011;42227;6.376;-10.782;2023-04-19T12:42:43;11.57;;;8.02;;
56321;SDS011;42227;6.376;-10.782;2023-04-19T12:45:11;26.25;;;10.32;;
56321;SDS011;42227;6.376;-10.782;2023-04-19T12:47:40;25.23;;;9.20;;
56321;SDS011;42227;6.376;-10.782;2023-04-19T12:50:10;23.85;;;12.25;;
56321;SDS011;42227;6.376;-10.782;2023-04-19T12:52:40;21.92;;;11.95;;
56321;SDS011;42227;6.376;-10.782;2023-04-19T12:55:09;24.95;;;12.52;;
56321;SDS011;42227;6.376;-10.782;2023-04-19T12:57:37;22.65;;;11.10;;
56321;SDS011;42227;6.376;-10.782;2023-04-19T13:00:06;20.80;;;9.68;;
56321;SDS011;42227;6.376;-10.782;2023-04-19T13:02:35;27.27;;;12.88;;
56321;SDS011;42227;6.376;-10.782;2023-04-19T13:05:04;22.17;;;10.32;;
56321;SDS011;42227;6.376;-10.782;2023-04-19T13:07:33;21.70;;;11.18;;
56321;SDS011;42227;6.376;-10.782;2023-04-19T13:10:01;28.35;;;14.45;;
56321;SDS011;42227;6.376;-10.782;2023-04-19T13:12:29;27.45;;;13.75;;
56321;SDS011;42227;6.376;-10.782;2023-04-19T13:14:58;20.83;;;10.60;;
56321;SDS011;42227;6.376;-10.782;2023-04-19T13:17:30;20.88;;;11.77;;
56321;SDS011;42227;6.376;-10.782;2023-04-19T13:19:58;28.08;;;13.25;;
56321;SDS011;42227;6.376;-10.782;2023-04-19T13:22:27;17.40;;;10.57;;
56321;SDS011;42227;6.376;-10.782;2023-04-19T13:24:55;33.35;;;13.88;;
56321;SDS011;42227;6.376;-10.782;2023-04-19T13:27:24;21.83;;;11.98;;
56321;SDS011;42227;6.376;-10.782;2023-04-19T13:29:53;22.83;;;10.40;;
56321;SDS011;42227;6.376;-10.782;2023-04-19T13:32:22;24.98;;;8.63;;
56321;SDS011;42227;6.376;-10.782;2023-04-19T13:34:51;17.88;;;8.48;;
56321;SDS011;42227;6.376;-10.782;2023-04-19T13:37:19;18.65;;;8.40;;
56321;SDS011;42227;6.376;-10.782;2023-04-19T13:39:48;21.80;;;7.95;;
56321;SDS011;42227;6.376;-10.782;2023-04-19T13:42:17;24.00;;;11.23;;
56321;SDS011;42227;6.376;-10.782;2023-04-19T13:44:45;20.38;;;8.43;;
56321;SDS011;42227;6.376;-10.782;2023-04-19T13:47:16;15.05;;;8.60;;
56321;SDS011;42227;6.376;-10.782;2023-04-19T13:49:44;21.05;;;9.68;;
56321;SDS011;42227;6.376;-10.782;2023-04-19T13:52:12;18.95;;;8.88;;
56321;SDS011;42227;6.376;-10.782;2023-04-19T13:54:41;24.92;;;11.60;;
56321;SDS011;42227;6.376;-10.782;2023-04-19T13:57:09;23.35;;;11.63;;
56321;SDS011;42227;6.376;-10.782;2023-04-19T13:59:38;24.20;;;11.30;;
56321;SDS011;42227;6.376;-10.782;2023-04-19T14:02:06;26.15;;;13.10;;
56321;SDS011;42227;6.376;-10.782;2023-04-19T14:04:35;27.15;;;14.02;;
56321;SDS011;42227;6.376;-10.782;2023-04-19T14:07:03;30.17;;;11.75;;
56321;SDS011;42227;6.376;-10.782;2023-04-19T14:09:31;20.88;;;9.32;;
56321;SDS011;42227;6.376;-10.782;2023-04-19T14:12:00;20.92;;;9.07;;
56321;SDS011;42227;6.376;-10.782;2023-04-19T14:14:28;19.60;;;8.93;;
56321;SDS011;42227;6.376;-10.782;2023-04-19T14:16:58;20.50;;;9.00;;
56321;SDS011;42227;6.376;-10.782;2023-04-19T14:19:26;25.55;;;10.50;;
56321;SDS011;42227;6.376;-10.782;2023-04-19T14:21:54;17.95;;;8.00;;
56321;SDS011;42227;6.376;-10.782;2023-04-19T14:24:22;24.48;;;9.40;;
56321;SDS011;42227;6.376;-10.782;2023-04-19T14:26:51;32.17;;;8.98;;
56321;SDS011;42227;6.376;-10.782;2023-04-19T14:29:35;13.57;;;8.52;;
56321;SDS011;42227;6.376;-10.782;2023-04-19T14:32:04;19.65;;;7.82;;
56321;SDS011;42227;6.376;-10.782;2023-04-19T14:34:51;16.83;;;9.07;;
56321;SDS011;42227;6.376;-10.782;2023-04-19T14:37:21;23.95;;;11.68;;
56321;SDS011;42227;6.376;-10.782;2023-04-19T14:39:50;16.10;;;8.02;;
56321;SDS011;42227;6.376;-10.782;2023-04-19T14:42:19;18.70;;;6.88;;
56321;SDS011;42227;6.376;-10.782;2023-04-19T14:44:49;24.30;;;8.43;;
56321;SDS011;42227;6.376;-10.782;2023-04-19T14:47:19;23.23;;;7.60;;
56321;SDS011;42227;6.376;-10.782;2023-04-19T14:49:49;20.65;;;7.03;;
56321;SDS011;42227;6.376;-10.782;2023-04-19T14:52:18;21.92;;;7.93;;
56321;SDS011;42227;6.376;-10.782;2023-04-19T14:54:46;19.20;;;7.97;;
56321;SDS011;42227;6.376;-10.782;2023-04-19T14:57:17;19.35;;;7.85;;